Time;durP1;ratioP1;P1;durP2;ratioP2;P2;SDS_P1;SDS_P2;PMS_P1;PMS_P2;Temp;Humidity;BMP_temperature;BMP_pressure;BME280_temperature;BME280_humidity;BME280_pressure;Samples;Min_cycle;Max_cycle;Signal;HPM_P1;HPM_P2
2022/01/17 00:00:12;;;;;;;13.45;7.18;;;3.10;99.90;;;;;;5091953;28;20030;-71
2022/01/17 00:02:39;;;;;;;12.02;7.05;;;3.20;99.90;;;;;;5092778;28;20020;-70
2022/01/17 00:05:06;;;;;;;14.60;7.63;;;3.20;99.90;;;;;;5088432;28;20028;-70
2022/01/17 00:07:32;;;;;;;11.52;6.68;;;3.20;99.90;;;;;;5092640;28;20109;-71
2022/01/17 00:09:59;;;;;;;11.90;7.70;;;3.20;99.90;;;;;;5089735;28;20052;-68
2022/01/17 00:12:25;;;;;;;11.25;6.63;;;3.20;99.90;;;;;;5092087;28;20024;-71
2022/01/17 00:14:51;;;;;;;11.63;6.95;;;3.30;99.90;;;;;;5087018;28;20031;-70
2022/01/17 00:19:45;;;;;;;10.65;6.93;;;3.30;99.90;;;;;;5092415;28;20374;-71
2022/01/17 00:22:13;;;;;;;13.05;7.63;;;3.30;99.90;;;;;;5089035;28;20032;-71
2022/01/17 00:24:39;;;;;;;10.20;6.60;;;3.30;99.90;;;;;;5089810;28;20027;-71
2022/01/17 00:27:05;;;;;;;11.52;6.47;;;3.30;99.90;;;;;;5090904;28;20058;-70
2022/01/17 00:29:31;;;;;;;12.07;7.22;;;3.30;99.90;;;;;;5092383;28;20104;-71
2022/01/17 00:31:56;;;;;;;10.30;6.70;;;3.20;99.90;;;;;;5093360;28;20034;-71
2022/01/17 00:34:22;;;;;;;12.30;7.68;;;3.30;99.90;;;;;;5082371;28;20037;-72
2022/01/17 00:36:48;;;;;;;10.95;7.18;;;3.30;99.90;;;;;;5072903;28;20064;-70
2022/01/17 00:39:15;;;;;;;13.88;7.57;;;3.20;99.90;;;;;;5080763;28;20028;-70
2022/01/17 00:41:41;;;;;;;11.63;7.55;;;3.20;99.90;;;;;;5093261;28;20093;-71
2022/01/17 00:44:06;;;;;;;9.30;6.63;;;3.20;99.90;;;;;;5073645;28;20028;-70
2022/01/17 00:46:33;;;;;;;13.75;7.80;;;3.10;99.90;;;;;;5072398;28;20111;-71
2022/01/17 00:48:58;;;;;;;12.88;7.90;;;3.10;99.90;;;;;;5072305;28;20044;-71
2022/01/17 00:51:24;;;;;;;13.40;8.52;;;3.10;99.90;;;;;;5081570;28;20089;-70
2022/01/17 00:53:51;;;;;;;12.90;7.75;;;3.00;99.90;;;;;;5091845;28;20024;-72
2022/01/17 00:56:19;;;;;;;12.85;8.68;;;3.00;99.90;;;;;;5091966;28;20035;-70
2022/01/17 00:58:45;;;;;;;13.82;9.00;;;2.90;99.90;;;;;;5092520;28;20032;-69
2022/01/17 01:01:11;;;;;;;15.55;9.15;;;2.90;99.90;;;;;;5089047;28;20024;-70
2022/01/17 01:03:37;;;;;;;16.38;10.27;;;2.90;99.90;;;;;;5093107;28;20069;-70
2022/01/17 01:06:04;;;;;;;21.98;11.55;;;2.80;99.90;;;;;;5092075;28;20028;-68
2022/01/17 01:08:29;;;;;;;21.55;11.63;;;2.80;99.90;;;;;;5086444;28;20024;-69
2022/01/17 01:10:55;;;;;;;17.27;11.60;;;2.80;99.90;;;;;;5073276;28;20154;-69
2022/01/17 01:13:23;;;;;;;16.60;10.48;;;2.70;99.90;;;;;;5073611;28;20024;-70
2022/01/17 01:29:11;;;;;;;22.77;13.35;;;2.50;99.90;;;;;;5085281;28;20032;-69
2022/01/17 01:31:44;;;;;;;24.77;13.60;;;2.60;99.90;;;;;;5078614;28;20031;-70
2022/01/17 01:34:10;;;;;;;23.10;13.75;;;2.70;99.90;;;;;;5091613;28;20016;-70
2022/01/17 01:36:37;;;;;;;21.98;13.25;;;2.70;99.90;;;;;;5090503;28;20028;-69
2022/01/17 01:39:07;;;;;;;22.90;12.80;;;2.60;99.90;;;;;;5071561;28;20071;-68
2022/01/17 01:41:42;;;;;;;;;;;2.60;99.90;;;;;;5076889;28;20023;-70
2022/01/17 01:44:16;;;;;;;27.60;14.02;;;2.50;99.90;;;;;;5087287;28;20361;-69
2022/01/17 01:46:43;;;;;;;21.85;12.65;;;2.50;99.90;;;;;;5085248;28;20032;-70
2022/01/17 01:49:09;;;;;;;27.50;14.70;;;2.40;99.90;;;;;;5069974;28;20443;-69
2022/01/17 01:51:35;;;;;;;22.30;13.07;;;2.40;99.90;;;;;;5058665;28;20119;-69
2022/01/17 01:54:01;;;;;;;24.05;13.82;;;2.40;99.90;;;;;;5092075;28;20044;-70
2022/01/17 01:56:27;;;;;;;18.92;12.43;;;2.40;99.90;;;;;;5086824;28;20117;-70
2022/01/17 01:58:52;;;;;;;23.00;13.07;;;2.40;99.90;;;;;;5071801;28;20031;-71
2022/01/17 02:01:18;;;;;;;22.75;13.13;;;2.40;99.90;;;;;;5071177;28;20039;-69
2022/01/17 02:03:44;;;;;;;20.88;13.25;;;2.40;99.90;;;;;;5090041;28;20047;-70
2022/01/17 02:06:09;;;;;;;21.33;13.40;;;2.40;99.90;;;;;;5088452;28;20058;-69
2022/01/17 02:08:35;;;;;;;21.88;12.10;;;2.30;99.90;;;;;;5071475;28;20042;-69
2022/01/17 02:11:01;;;;;;;20.63;12.75;;;2.40;99.90;;;;;;5070895;28;20028;-69
2022/01/17 02:13:27;;;;;;;21.48;11.52;;;2.40;99.90;;;;;;5070289;28;20040;-69
2022/01/17 02:16:03;;;;;;;22.50;11.57;;;2.40;99.90;;;;;;5071094;28;20032;-70
2022/01/17 02:18:31;;;;;;;18.52;11.93;;;2.40;99.90;;;;;;5070802;28;20037;-70
2022/01/17 02:23:35;;;;;;;17.75;11.35;;;2.50;99.90;;;;;;5072877;28;20025;-69
2022/01/17 02:26:01;;;;;;;18.85;10.55;;;2.50;99.90;;;;;;5090831;28;20039;-70
2022/01/17 02:28:27;;;;;;;19.95;11.23;;;2.50;99.90;;;;;;5072613;28;20028;-69
2022/01/17 02:30:53;;;;;;;18.65;11.57;;;2.60;99.90;;;;;;5091007;28;20055;-69
2022/01/17 02:33:19;;;;;;;18.20;10.43;;;2.60;99.90;;;;;;5070365;28;20382;-72
2022/01/17 02:35:49;;;;;;;18.58;10.88;;;2.60;99.90;;;;;;5070863;28;20453;-71
2022/01/17 02:38:15;;;;;;;18.58;10.88;;;2.50;99.90;;;;;;5070777;28;20039;-69
2022/01/17 02:40:41;;;;;;;17.65;10.80;;;2.60;99.90;;;;;;5071003;28;20107;-69
2022/01/17 02:43:07;;;;;;;18.33;11.43;;;2.50;99.90;;;;;;5070710;28;20024;-68
2022/01/17 02:48:28;;;;;;;17.83;10.43;;;2.50;99.90;;;;;;5089819;28;20107;-69
2022/01/17 02:50:54;;;;;;;19.85;11.45;;;2.50;99.90;;;;;;5089353;28;20464;-73
2022/01/17 02:53:20;;;;;;;18.63;10.35;;;2.50;99.90;;;;;;5070396;28;20036;-69
2022/01/17 02:55:50;;;;;;;18.55;10.43;;;2.60;99.90;;;;;;5073311;28;20431;-69
2022/01/17 02:58:19;;;;;;;16.95;10.73;;;2.60;99.90;;;;;;5089586;28;20081;-69
2022/01/17 03:00:45;;;;;;;18.40;10.80;;;2.60;99.90;;;;;;5093066;28;20028;-70
2022/01/17 03:03:20;;;;;;;18.27;10.75;;;2.60;99.90;;;;;;5075205;28;20123;-69
2022/01/17 03:05:48;;;;;;;18.20;11.15;;;2.50;99.90;;;;;;5095028;28;20036;-70
2022/01/17 03:08:17;;;;;;;17.88;10.52;;;2.50;99.90;;;;;;5074587;28;20133;-70
2022/01/17 03:10:46;;;;;;;18.13;10.82;;;2.50;99.90;;;;;;5074398;28;20027;-70
2022/01/17 03:13:25;;;;;;;18.20;10.80;;;2.50;99.90;;;;;;5073484;28;20027;-70
2022/01/17 03:16:02;;;;;;;17.15;10.10;;;2.50;99.90;;;;;;5074630;28;20033;-70
2022/01/17 03:18:30;;;;;;;21.95;11.10;;;2.50;99.90;;;;;;5073278;28;20033;-70
2022/01/17 03:20:57;;;;;;;20.05;10.95;;;2.50;99.90;;;;;;5092879;28;20043;-71
2022/01/17 03:23:23;;;;;;;17.70;9.50;;;2.50;99.90;;;;;;5093804;28;20020;-71
2022/01/17 03:25:49;;;;;;;16.38;9.68;;;2.50;99.90;;;;;;5076557;28;20427;-71
2022/01/17 03:28:15;;;;;;;15.90;9.77;;;2.50;99.90;;;;;;5092354;28;20111;-71
2022/01/17 03:30:40;;;;;;;14.15;8.77;;;2.50;99.90;;;;;;5094569;28;20035;-73
2022/01/17 03:33:09;;;;;;;16.73;9.68;;;2.50;99.90;;;;;;5093982;28;20373;-68
2022/01/17 03:35:38;;;;;;;16.58;9.85;;;2.50;99.90;;;;;;5094193;28;20052;-70
2022/01/17 03:38:10;;;;;;;19.90;11.45;;;2.50;99.90;;;;;;5076945;28;20068;-70
2022/01/17 03:40:37;;;;;;;19.88;11.50;;;2.50;99.90;;;;;;5073668;28;20123;-70
2022/01/17 03:43:03;;;;;;;21.23;12.75;;;2.50;99.90;;;;;;5074054;28;20028;-70
2022/01/17 03:45:29;;;;;;;20.92;13.02;;;2.50;99.90;;;;;;5056684;28;20028;-70
2022/01/17 03:47:55;;;;;;;22.27;12.68;;;2.50;99.90;;;;;;5089075;28;20113;-70
2022/01/17 03:50:23;;;;;;;21.92;12.85;;;2.40;99.90;;;;;;5088644;28;20105;-70
2022/01/17 03:52:50;;;;;;;21.50;13.15;;;2.30;99.90;;;;;;5093442;28;20086;-70
2022/01/17 03:55:19;;;;;;;26.02;14.05;;;2.30;99.90;;;;;;5092559;28;20491;-70
2022/01/17 03:57:45;;;;;;;23.08;13.25;;;2.20;99.90;;;;;;5074913;28;20085;-71
2022/01/17 04:00:15;;;;;;;23.80;12.68;;;2.20;99.90;;;;;;5092804;28;20056;-70
2022/01/17 04:02:41;;;;;;;23.15;12.93;;;2.10;99.90;;;;;;5072906;28;20051;-70
2022/01/17 04:05:07;;;;;;;24.42;14.20;;;2.10;99.90;;;;;;5073428;28;20469;-69
2022/01/17 04:07:33;;;;;;;23.75;13.68;;;2.00;99.90;;;;;;5082218;28;20514;-70
2022/01/17 04:09:58;;;;;;;24.88;14.38;;;2.00;99.90;;;;;;5093867;28;20032;-70
2022/01/17 04:12:24;;;;;;;22.55;13.57;;;2.00;99.90;;;;;;5083987;28;20476;-70
2022/01/17 04:14:54;;;;;;;25.58;14.68;;;2.00;99.90;;;;;;5073320;28;20028;-70
2022/01/17 04:17:20;;;;;;;25.48;14.98;;;2.00;99.90;;;;;;5079460;28;20032;-70
2022/01/17 04:19:51;;;;;;;23.02;13.70;;;2.00;99.90;;;;;;5093422;28;20039;-70
2022/01/17 04:22:17;;;;;;;24.88;14.55;;;2.00;99.90;;;;;;5092485;28;20028;-70
2022/01/17 04:24:43;;;;;;;29.63;15.15;;;1.90;99.90;;;;;;5092589;28;20036;-70
2022/01/17 04:27:08;;;;;;;23.30;14.55;;;1.90;99.90;;;;;;5092421;28;20081;-68
2022/01/17 04:29:35;;;;;;;29.20;16.60;;;1.90;99.90;;;;;;5092734;28;20043;-70
2022/01/17 04:32:02;;;;;;;27.73;16.45;;;1.90;99.90;;;;;;5092877;28;20039;-71
2022/01/17 04:34:27;;;;;;;25.17;14.80;;;1.90;99.90;;;;;;5073595;28;20035;-69
2022/01/17 04:36:53;;;;;;;28.17;15.43;;;1.90;99.90;;;;;;5091983;28;20028;-71
2022/01/17 04:39:20;;;;;;;33.67;17.30;;;1.90;99.90;;;;;;5091105;28;20059;-70
2022/01/17 04:41:45;;;;;;;33.22;16.20;;;1.90;99.90;;;;;;5090320;28;20309;-70
2022/01/17 04:46:55;;;;;;;31.60;16.48;;;2.00;99.90;;;;;;5072356;28;20035;-70
2022/01/17 04:49:20;;;;;;;31.90;16.85;;;2.00;99.90;;;;;;5077923;28;20044;-70
2022/01/17 04:51:46;;;;;;;30.35;17.00;;;1.90;99.90;;;;;;5054063;28;20126;-70
2022/01/17 04:57:13;;;;;;;38.20;20.20;;;2.00;99.90;;;;;;5010290;28;20053;-69
2022/01/17 04:59:39;;;;;;;43.90;21.92;;;2.10;99.90;;;;;;5059054;28;20127;-70
2022/01/17 05:02:06;;;;;;;42.50;23.10;;;2.10;99.90;;;;;;5071693;28;20492;-70
2022/01/17 05:04:32;;;;;;;43.22;23.27;;;2.10;99.90;;;;;;5071044;28;20113;-70
2022/01/17 05:06:58;;;;;;;41.97;24.02;;;2.00;99.90;;;;;;5084698;28;20024;-70
2022/01/17 05:09:23;;;;;;;47.67;24.92;;;1.90;99.90;;;;;;5070597;28;20385;-70
2022/01/17 05:11:49;;;;;;;46.13;25.38;;;1.90;99.90;;;;;;5071577;28;20081;-70
2022/01/17 05:14:15;;;;;;;42.80;25.25;;;1.90;99.90;;;;;;5073278;28;20074;-69
2022/01/17 05:16:49;;;;;;;46.00;25.90;;;1.90;99.90;;;;;;5092185;28;20036;-70
2022/01/17 05:21:59;;;;;;;45.92;23.95;;;1.90;99.90;;;;;;5071177;28;20541;-70
2022/01/17 05:24:25;;;;;;;46.00;25.27;;;1.80;99.90;;;;;;5074362;28;20108;-70
2022/01/17 05:26:50;;;;;;;40.63;22.85;;;1.80;99.90;;;;;;5072820;28;20466;-70
2022/01/17 05:29:16;;;;;;;45.22;25.83;;;1.80;99.90;;;;;;5070834;28;20036;-69
2022/01/17 05:31:42;;;;;;;47.80;26.60;;;1.80;99.90;;;;;;5071726;28;20029;-70
2022/01/17 05:34:08;;;;;;;42.88;22.83;;;1.70;99.90;;;;;;5079392;28;20028;-69
2022/01/17 05:36:33;;;;;;;41.13;20.83;;;1.80;99.90;;;;;;5090838;28;20032;-69
2022/01/17 05:38:59;;;;;;;32.47;17.50;;;1.80;99.90;;;;;;5086745;28;20414;-70
2022/01/17 05:41:24;;;;;;;26.60;15.55;;;1.90;99.90;;;;;;5090562;28;20024;-70
2022/01/17 05:43:50;;;;;;;25.27;13.63;;;1.90;99.90;;;;;;5086446;28;20165;-69
2022/01/17 05:46:16;;;;;;;20.55;12.23;;;2.00;99.90;;;;;;5078439;28;20043;-69
2022/01/17 05:48:41;;;;;;;21.33;11.98;;;2.10;99.90;;;;;;5091103;28;20060;-70
2022/01/17 05:51:07;;;;;;;18.83;11.63;;;2.20;99.90;;;;;;5091332;28;20032;-70
2022/01/17 05:53:33;;;;;;;19.33;11.05;;;2.20;99.90;;;;;;5091485;28;20029;-70
2022/01/17 05:55:58;;;;;;;20.05;11.00;;;2.30;99.90;;;;;;5091796;28;20020;-69
2022/01/17 05:58:24;;;;;;;18.23;9.88;;;2.30;99.90;;;;;;5091310;28;20066;-70
2022/01/17 06:00:51;;;;;;;20.23;11.05;;;2.30;99.90;;;;;;5091933;28;20083;-70
2022/01/17 06:03:17;;;;;;;23.45;10.55;;;2.30;99.90;;;;;;5091245;28;20024;-68
2022/01/17 06:05:43;;;;;;;17.60;10.75;;;2.40;99.90;;;;;;5091763;28;20085;-70
2022/01/17 06:08:09;;;;;;;16.25;10.13;;;2.40;99.90;;;;;;5091872;28;20036;-70
2022/01/17 06:10:35;;;;;;;19.85;9.48;;;2.40;99.90;;;;;;5091216;28;20102;-71
2022/01/17 06:13:01;;;;;;;15.02;9.68;;;2.50;99.90;;;;;;5091525;28;20035;-70
2022/01/17 06:15:27;;;;;;;14.75;8.80;;;2.50;99.90;;;;;;5090581;28;20119;-69
2022/01/17 06:17:53;;;;;;;14.88;8.90;;;2.50;99.90;;;;;;5090905;28;20043;-70
2022/01/17 06:20:18;;;;;;;14.68;9.07;;;2.50;99.90;;;;;;5088341;28;20028;-70
2022/01/17 06:22:44;;;;;;;16.05;9.70;;;2.50;99.90;;;;;;5091034;28;20105;-69
2022/01/17 06:25:10;;;;;;;15.50;9.23;;;2.50;99.90;;;;;;5091596;28;20042;-69
2022/01/17 06:27:36;;;;;;;14.23;9.45;;;2.50;99.90;;;;;;5091227;28;20032;-69
2022/01/17 06:30:03;;;;;;;19.00;9.60;;;2.50;99.90;;;;;;5091689;28;20024;-71
2022/01/17 06:32:30;;;;;;;16.83;9.40;;;2.50;99.90;;;;;;5082075;28;20032;-71
2022/01/17 06:34:56;;;;;;;19.25;9.23;;;2.50;99.90;;;;;;5093244;28;20056;-71
2022/01/17 06:37:23;;;;;;;14.13;8.88;;;2.50;99.90;;;;;;5093795;28;20036;-70
2022/01/17 06:39:49;;;;;;;16.00;8.82;;;2.50;99.90;;;;;;5095445;28;20024;-72
2022/01/17 06:42:15;;;;;;;16.98;8.73;;;2.50;99.90;;;;;;5094554;28;20028;-71
2022/01/17 06:44:40;;;;;;;13.32;8.48;;;2.60;99.90;;;;;;5095320;28;20035;-70
2022/01/17 06:47:06;;;;;;;15.07;8.95;;;2.60;99.90;;;;;;5095329;28;20089;-71
2022/01/17 06:49:32;;;;;;;16.30;9.18;;;2.60;99.90;;;;;;5094674;28;20055;-70
2022/01/17 06:51:58;;;;;;;10.50;6.85;;;2.60;99.90;;;;;;5094593;28;20024;-74
2022/01/17 06:54:24;;;;;;;12.15;7.32;;;2.70;99.90;;;;;;5094609;28;20032;-75
2022/01/17 06:56:49;;;;;;;14.77;7.95;;;2.80;99.90;;;;;;5094918;28;20122;-74
2022/01/17 06:59:15;;;;;;;16.83;9.45;;;2.80;99.90;;;;;;5094423;28;20063;-70
2022/01/17 07:01:42;;;;;;;15.75;8.18;;;2.80;99.90;;;;;;5094716;28;20029;-79
2022/01/17 07:04:09;;;;;;;15.93;8.57;;;2.80;99.90;;;;;;5094949;28;20028;-72
2022/01/17 07:06:35;;;;;;;12.98;7.72;;;2.90;99.90;;;;;;5094041;28;20039;-71
2022/01/17 07:09:02;;;;;;;16.52;8.20;;;2.90;99.90;;;;;;5094873;28;20032;-71
2022/01/17 07:11:28;;;;;;;16.92;7.93;;;2.90;99.90;;;;;;5094297;28;20023;-71
2022/01/17 07:13:54;;;;;;;12.93;7.95;;;3.00;99.90;;;;;;5094847;28;20021;-71
2022/01/17 07:16:19;;;;;;;11.48;7.55;;;3.00;99.90;;;;;;5093976;28;20035;-71
2022/01/17 07:18:45;;;;;;;9.95;7.05;;;3.10;99.90;;;;;;5097554;28;20107;-72
2022/01/17 07:21:11;;;;;;;10.57;6.80;;;3.10;99.90;;;;;;5114877;28;20092;-74
2022/01/17 07:23:37;;;;;;;12.77;7.57;;;3.10;99.90;;;;;;5112593;28;20023;-73
2022/01/17 07:26:03;;;;;;;11.65;7.15;;;3.10;99.90;;;;;;5092166;28;20031;-71
2022/01/17 07:28:29;;;;;;;14.85;7.20;;;3.20;99.90;;;;;;5076843;28;20040;-73
2022/01/17 07:30:55;;;;;;;11.27;7.40;;;3.20;99.90;;;;;;5074123;28;20029;-73
2022/01/17 07:33:22;;;;;;;12.57;7.43;;;3.20;99.90;;;;;;5098681;28;20034;-73
2022/01/17 07:35:48;;;;;;;11.70;7.25;;;3.20;99.90;;;;;;5114599;28;20028;-73
2022/01/17 07:38:15;;;;;;;10.38;6.63;;;3.20;99.90;;;;;;5113748;28;20039;-73
2022/01/17 07:40:43;;;;;;;12.57;7.65;;;3.20;99.90;;;;;;5114265;28;20028;-71
2022/01/17 07:43:09;;;;;;;9.95;6.35;;;3.30;99.90;;;;;;5114439;28;20031;-72
2022/01/17 07:45:36;;;;;;;9.93;6.35;;;3.30;99.90;;;;;;5113083;28;20031;-72
2022/01/17 07:50:28;;;;;;;10.07;5.70;;;3.50;99.90;;;;;;5093568;28;20052;-75
2022/01/17 07:52:54;;;;;;;8.40;5.90;;;3.50;99.90;;;;;;5093797;28;20032;-77
2022/01/17 07:55:21;;;;;;;8.88;5.88;;;3.50;99.90;;;;;;5093347;28;20028;-77
2022/01/17 07:57:47;;;;;;;8.30;5.60;;;3.50;99.90;;;;;;5093884;28;20130;-77
2022/01/17 08:00:22;;;;;;;9.55;5.50;;;3.60;99.90;;;;;;5093588;28;20063;-72
2022/01/17 08:02:49;;;;;;;9.15;5.68;;;3.60;99.90;;;;;;5093471;28;20315;-77
2022/01/17 08:05:16;;;;;;;8.02;5.55;;;3.60;99.90;;;;;;5093094;28;20055;-76
2022/01/17 08:07:43;;;;;;;8.35;5.40;;;3.60;99.90;;;;;;5093560;28;20028;-77
2022/01/17 08:10:12;;;;;;;6.95;5.25;;;3.60;99.90;;;;;;5093817;28;20043;-77
2022/01/17 08:12:43;;;;;;;9.82;5.50;;;3.60;99.90;;;;;;5093084;28;20061;-78
2022/01/17 08:15:10;;;;;;;9.63;5.80;;;3.60;99.90;;;;;;5093539;28;20088;-77
2022/01/17 08:17:36;;;;;;;9.05;5.50;;;3.70;99.90;;;;;;5089505;28;20028;-77
2022/01/17 08:20:03;;;;;;;9.85;6.03;;;3.70;99.90;;;;;;5093005;28;20036;-76
2022/01/17 08:22:29;;;;;;;8.13;5.95;;;3.70;99.90;;;;;;5087810;28;20023;-75
2022/01/17 08:24:54;;;;;;;9.68;5.70;;;3.70;99.90;;;;;;5093059;28;20111;-75
2022/01/17 08:27:20;;;;;;;10.25;6.40;;;3.80;99.90;;;;;;5093186;28;20086;-75
2022/01/17 08:29:46;;;;;;;10.55;6.03;;;3.90;99.90;;;;;;5093897;28;20432;-75
2022/01/17 08:32:11;;;;;;;10.32;5.88;;;3.90;99.90;;;;;;5092882;28;20031;-76
2022/01/17 08:34:37;;;;;;;7.40;5.75;;;4.00;99.90;;;;;;5092307;28;20452;-73
2022/01/17 08:37:04;;;;;;;10.95;6.47;;;4.00;99.90;;;;;;5092568;28;20024;-73
2022/01/17 08:39:31;;;;;;;8.85;5.55;;;4.10;99.90;;;;;;5092044;28;20119;-73
2022/01/17 08:41:57;;;;;;;7.03;4.85;;;4.10;99.90;;;;;;5092607;28;20103;-74
2022/01/17 08:44:23;;;;;;;8.05;5.35;;;4.10;99.90;;;;;;5092083;28;20079;-72
2022/01/17 08:46:49;;;;;;;9.20;5.50;;;4.20;99.90;;;;;;5092972;28;20028;-74
2022/01/17 08:49:16;;;;;;;7.47;5.10;;;4.20;99.90;;;;;;5091582;28;20534;-71
2022/01/17 08:51:42;;;;;;;8.90;5.10;;;4.20;99.90;;;;;;5092619;28;20028;-73
2022/01/17 08:54:08;;;;;;;7.32;4.53;;;4.30;99.90;;;;;;5092677;28;20032;-77
2022/01/17 08:56:33;;;;;;;6.70;5.07;;;4.40;99.90;;;;;;5091735;28;20729;-76
2022/01/17 08:59:01;;;;;;;6.82;4.40;;;4.40;99.90;;;;;;5091761;28;20028;-77
2022/01/17 09:01:27;;;;;;;8.43;4.85;;;4.40;99.90;;;;;;5092096;28;20024;-77
2022/01/17 09:03:54;;;;;;;6.97;4.50;;;4.40;99.90;;;;;;5092621;28;20465;-76
2022/01/17 09:06:19;;;;;;;8.57;4.55;;;4.50;99.90;;;;;;5091827;28;20465;-75
2022/01/17 09:08:45;;;;;;;7.63;4.38;;;4.60;99.90;;;;;;5091701;28;20062;-75
2022/01/17 09:11:11;;;;;;;7.70;4.82;;;4.60;99.90;;;;;;5092149;28;20028;-75
2022/01/17 09:13:37;;;;;;;6.93;4.35;;;4.70;99.90;;;;;;5091776;28;20102;-76
2022/01/17 09:16:03;;;;;;;7.90;4.25;;;4.80;99.90;;;;;;5087286;28;20032;-75
2022/01/17 09:18:29;;;;;;;8.15;4.53;;;4.80;99.90;;;;;;5091019;28;20036;-73
2022/01/17 09:20:55;;;;;;;8.75;4.97;;;4.90;99.90;;;;;;5092593;28;20041;-74
2022/01/17 09:23:21;;;;;;;6.57;4.18;;;5.00;99.90;;;;;;5092178;28;20031;-72
2022/01/17 09:25:47;;;;;;;6.07;4.10;;;5.30;99.90;;;;;;5092210;28;20031;-72
2022/01/17 09:28:13;;;;;;;6.13;4.35;;;5.20;99.90;;;;;;5092204;28;20032;-73
2022/01/17 09:30:39;;;;;;;6.47;4.15;;;5.30;99.90;;;;;;5091972;28;20063;-72
2022/01/17 09:33:06;;;;;;;5.63;3.85;;;5.30;99.90;;;;;;5092436;28;20044;-73
2022/01/17 09:35:32;;;;;;;4.95;3.80;;;5.30;99.90;;;;;;5091915;28;20059;-73
2022/01/17 09:37:58;;;;;;;5.95;3.80;;;5.40;99.90;;;;;;5092143;28;20088;-73
2022/01/17 09:40:24;;;;;;;5.50;3.55;;;5.40;99.90;;;;;;5091625;28;20024;-73
2022/01/17 09:42:50;;;;;;;5.10;3.38;;;5.40;99.90;;;;;;5092226;28;20419;-71
2022/01/17 09:45:20;;;;;;;4.63;3.20;;;5.50;99.90;;;;;;5091850;28;20103;-69
2022/01/17 09:47:46;;;;;;;5.68;3.60;;;5.50;99.90;;;;;;5091162;28;20024;-73
2022/01/17 09:50:18;;;;;;;4.97;3.50;;;5.60;99.90;;;;;;5092953;28;20509;-72
2022/01/17 09:52:52;;;;;;;4.10;3.22;;;5.70;99.90;;;;;;5092593;28;20032;-73
2022/01/17 09:55:23;;;;;;;4.13;3.17;;;5.70;99.90;;;;;;5092139;28;20388;-72
2022/01/17 09:58:01;;;;;;;7.03;3.67;;;5.70;99.90;;;;;;5092773;28;20032;-72
2022/01/17 10:00:29;;;;;;;4.82;3.00;;;5.80;99.90;;;;;;5091772;28;20028;-72
2022/01/17 10:02:58;;;;;;;5.90;3.53;;;5.80;99.90;;;;;;5092234;28;20108;-72
2022/01/17 10:05:25;;;;;;;4.78;3.00;;;5.80;99.90;;;;;;5092100;28;20028;-72
2022/01/17 10:08:01;;;;;;;5.22;2.70;;;5.80;99.90;;;;;;5074731;28;20056;-73
2022/01/17 10:10:37;;;;;;;4.05;2.67;;;5.90;99.90;;;;;;5086563;28;20389;-72
2022/01/17 10:13:09;;;;;;;4.90;3.03;;;6.00;99.90;;;;;;5091906;28;20036;-72
2022/01/17 10:15:53;;;;;;;3.97;2.78;;;6.10;99.90;;;;;;5090939;28;20032;-72
2022/01/17 10:18:33;;;;;;;3.90;2.70;;;6.20;99.90;;;;;;5090981;28;20031;-72
2022/01/17 10:21:08;;;;;;;3.70;2.40;;;6.30;99.90;;;;;;5092030;28;20036;-72
2022/01/17 10:23:49;;;;;;;4.75;2.83;;;6.50;99.90;;;;;;5091173;28;20028;-72
2022/01/17 10:26:48;;;;;;;2.80;1.92;;;6.60;99.90;;;;;;5091941;28;20024;-72
2022/01/17 10:35:20;;;;;;;5.03;1.88;;;6.60;99.90;;;;;;5057486;28;20499;-72
2022/01/17 10:38:07;;;;;;;2.55;1.83;;;6.70;99.90;;;;;;5091685;28;20032;-72
2022/01/17 10:40:43;;;;;;;2.67;1.50;;;6.70;99.90;;;;;;5090982;28;20040;-72
2022/01/17 10:43:20;;;;;;;3.13;1.70;;;6.70;99.90;;;;;;5091631;28;20161;-72
2022/01/17 10:45:46;;;;;;;3.03;1.80;;;6.70;99.90;;;;;;5091460;28;20028;-72
2022/01/17 10:48:12;;;;;;;2.58;1.75;;;6.60;99.90;;;;;;5090572;28;20115;-72
2022/01/17 10:50:43;;;;;;;1.60;1.40;;;6.60;99.90;;;;;;5090531;28;20180;-73
2022/01/17 10:53:13;;;;;;;1.83;1.33;;;6.60;99.90;;;;;;5091077;28;20460;-72
2022/01/17 10:55:48;;;;;;;1.53;1.30;;;6.60;99.90;;;;;;5091056;28;20059;-72
2022/01/17 10:58:20;;;;;;;1.40;0.95;;;6.50;99.90;;;;;;5091537;28;20261;-72
2022/01/17 11:00:48;;;;;;;5.18;2.90;;;6.40;99.90;;;;;;5091601;28;20031;-72
2022/01/17 11:03:18;;;;;;;6.75;3.38;;;6.30;99.90;;;;;;5088430;28;20031;-71
2022/01/17 11:05:49;;;;;;;7.80;3.97;;;6.20;99.90;;;;;;5089902;28;20032;-72
2022/01/17 11:08:21;;;;;;;6.50;4.30;;;6.00;99.90;;;;;;5091399;28;20036;-73
2022/01/17 11:10:56;;;;;;;7.30;4.20;;;5.80;99.90;;;;;;5091394;28;20024;-73
2022/01/17 11:13:24;;;;;;;9.05;4.40;;;5.70;99.90;;;;;;5088361;28;20388;-71
2022/01/17 11:15:59;;;;;;;43.60;18.17;;;5.60;99.90;;;;;;5111228;28;20035;-71
2022/01/17 11:18:28;;;;;;;15.35;7.05;;;5.50;99.90;;;;;;5098620;28;20043;-72
2022/01/17 11:20:56;;;;;;;6.32;4.03;;;5.60;99.90;;;;;;5092314;28;20028;-72
2022/01/17 11:23:22;;;;;;;5.15;3.53;;;5.60;99.90;;;;;;5094646;28;20032;-71
2022/01/17 11:25:53;;;;;;;11.43;5.18;;;5.60;99.90;;;;;;5095293;28;20085;-72
2022/01/17 11:28:23;;;;;;;6.32;4.60;;;5.70;99.90;;;;;;5094828;28;20035;-72
2022/01/17 11:30:50;;;;;;;;;;;5.80;99.90;;;;;;5095275;28;20419;-72
2022/01/17 11:33:16;;;;;;;7.10;5.05;;;5.80;99.90;;;;;;5095004;28;19904;-72
2022/01/17 11:35:43;;;;;;;8.65;5.50;;;5.80;99.90;;;;;;5094252;28;20398;-72
2022/01/17 11:38:21;;;;;;;8.77;5.50;;;5.70;99.90;;;;;;5094679;28;20031;-72
2022/01/17 11:40:47;;;;;;;10.10;5.32;;;5.60;99.90;;;;;;5094801;28;20085;-72
2022/01/17 11:43:36;;;;;;;10.10;5.47;;;5.50;99.90;;;;;;5076553;28;20024;-72
2022/01/17 11:46:17;;;;;;;7.93;5.53;;;5.30;99.90;;;;;;5074335;28;20032;-73
2022/01/17 11:48:51;;;;;;;8.82;5.50;;;5.10;99.90;;;;;;5088051;28;20055;-73
2022/01/17 11:51:17;;;;;;;7.53;5.70;;;5.00;99.90;;;;;;5094606;28;20111;-73
2022/01/17 11:53:46;;;;;;;7.40;5.20;;;4.80;99.90;;;;;;5094025;28;20024;-72
2022/01/17 11:56:35;;;;;;;6.30;4.65;;;4.70;99.90;;;;;;5094254;28;20043;-73
2022/01/17 11:59:01;;;;;;;7.93;5.35;;;4.70;99.90;;;;;;5075086;28;20393;-73
2022/01/17 12:01:26;;;;;;;6.90;4.85;;;4.60;99.90;;;;;;5073248;28;20047;-71
2022/01/17 12:03:56;;;;;;;7.07;5.38;;;4.60;99.90;;;;;;5074008;28;20071;-74
2022/01/17 12:06:34;;;;;;;6.53;4.78;;;4.60;99.90;;;;;;5073403;28;20035;-73
2022/01/17 12:09:20;;;;;;;6.90;4.38;;;4.70;99.90;;;;;;5074101;28;20377;-76
2022/01/17 12:12:03;;;;;;;7.85;5.07;;;4.90;99.90;;;;;;5079539;28;20069;-74
2022/01/17 12:14:33;;;;;;;8.68;4.57;;;5.00;99.90;;;;;;5093545;28;20099;-74
2022/01/17 12:17:23;;;;;;;5.35;4.10;;;5.00;99.90;;;;;;5093924;28;20373;-74
2022/01/17 12:20:07;;;;;;;6.70;3.67;;;5.10;99.90;;;;;;5094129;28;20044;-79
2022/01/17 12:22:39;;;;;;;4.95;3.47;;;5.30;99.90;;;;;;5093611;28;20107;-76
2022/01/17 12:25:31;;;;;;;4.70;3.83;;;5.50;99.90;;;;;;5094017;28;20115;-74
2022/01/17 12:28:03;;;;;;;3.75;3.03;;;5.50;99.90;;;;;;5089333;28;20040;-76
2022/01/17 12:30:42;;;;;;;4.45;3.45;;;5.60;99.90;;;;;;5092747;28;20069;-74
2022/01/17 12:33:12;;;;;;;4.22;3.10;;;5.70;99.90;;;;;;5091702;28;20031;-70
2022/01/17 12:35:46;;;;;;;4.80;3.33;;;5.70;99.90;;;;;;5092461;28;20032;-71
2022/01/17 12:38:28;;;;;;;5.32;3.28;;;5.70;99.90;;;;;;5093708;28;20111;-72
2022/01/17 12:40:54;;;;;;;5.40;3.50;;;5.80;99.90;;;;;;5091151;28;20020;-77
2022/01/17 12:43:31;;;;;;;3.50;2.95;;;5.80;99.90;;;;;;5093897;28;20028;-76
2022/01/17 12:46:00;;;;;;;5.72;3.33;;;5.80;99.90;;;;;;5093135;28;20043;-76
2022/01/17 12:48:27;;;;;;;5.10;3.40;;;5.80;99.90;;;;;;5092295;28;20059;-76
2022/01/17 12:50:54;;;;;;;8.00;3.28;;;5.80;99.90;;;;;;5093417;28;20035;-75
2022/01/17 12:53:22;;;;;;;5.07;3.33;;;5.80;99.90;;;;;;5088894;28;20035;-76
2022/01/17 12:55:54;;;;;;;4.80;3.45;;;5.80;99.90;;;;;;5092995;28;20060;-76
2022/01/17 12:58:28;;;;;;;5.88;3.22;;;5.90;99.90;;;;;;5093163;28;20024;-76
2022/01/17 13:01:01;;;;;;;5.25;3.55;;;5.90;99.90;;;;;;5093208;28;20024;-76
2022/01/17 13:03:30;;;;;;;3.50;3.08;;;6.00;99.90;;;;;;5092722;28;20107;-73
2022/01/17 13:05:56;;;;;;;4.20;3.40;;;6.00;99.90;;;;;;5092931;28;20039;-73
2022/01/17 13:08:23;;;;;;;5.90;3.90;;;6.00;99.90;;;;;;5092923;28;20103;-74
2022/01/17 13:10:49;;;;;;;6.40;3.13;;;6.10;99.90;;;;;;5092888;28;20369;-74
2022/01/17 13:13:16;;;;;;;4.72;2.88;;;6.10;99.90;;;;;;5092819;28;20399;-74
2022/01/17 13:16:00;;;;;;;7.40;3.10;;;6.10;99.90;;;;;;5092343;28;20558;-74
2022/01/17 13:18:28;;;;;;;4.55;3.38;;;6.10;99.90;;;;;;5091930;28;20043;-73
2022/01/17 13:20:55;;;;;;;6.75;3.22;;;6.10;99.90;;;;;;5092531;28;20536;-74
2022/01/17 13:23:30;;;;;;;6.10;2.90;;;6.10;99.90;;;;;;5092984;28;20028;-74
2022/01/17 13:25:56;;;;;;;5.28;3.40;;;6.10;99.90;;;;;;5072603;28;20024;-73
2022/01/17 13:28:22;;;;;;;5.88;3.53;;;6.10;99.90;;;;;;5072472;28;20032;-74
2022/01/17 13:30:47;;;;;;;5.78;2.58;;;6.00;99.90;;;;;;5071311;28;20025;-73